Sand Ridge, Illinois
Current Conditions -  °F | °C
As of 10:52 PM on Sunday 19 Oct 2014 (Local Time) from KMDH Reporting Station
Clear Clear  
Wind Chill: 46°   Ceiling: Unl
Heat Index: 46°   Visibility: 10mi
Dew Point: 43°   Wind: 3mph
Humidity: 89%   Direction: 170°S
Pressure: 30.07"   Gusts: NA
Location:  37.7438°N, 89.4409°W
Report Text: KMDH 200352Z AUTO 17003KT 10SM CLR 08/06 A3007 RMK AO2 SLP181 T00780061
Loading
Personal Weather Stations






























Interactive Weather Map
Tropical Storm Tracking
New forecast layout! Learn more

10-Day Weather Forecast

Advertisements
Track Severe Weather on mobile